Bangkok Bridge — 3FTZ8 — position and weather

sailwx.info

Track history (hours):
 
Tides and Currents Weather Stations Pressure Air Temp Water Temp Dewpoint Dewpoint Depression Visibility Wind Speed Wind Dir Waves Ship Positions

Bangkok Bridge

Last reported at 2014-Oct-31 03:33 UTC. Time now 2014-Oct-31 04:11 UTC.
Position N 48°60' W 123°17'.

Length 267 m; draft 12.7 m.

Type: Ship (hazmat cat A). MMSI: 353368000.

Date/timePositionNaut miles runAvg speedWind from/ knotsBaromVisibWave heightAir tempDewpointWater temp
2014-Oct-31 03:33N 48°60' W 123°17'1817.6
2014-Oct-31 02:33N 49°17' W 123°19'10 9.6
2014-Oct-31 01:34N 49°17' W 123°04'0 0.0
2014-Oct-31 00:32N 49°17' W 123°04'0 0.0
2014-Oct-30 23:32N 49°17' W 123°04'0 0.0
2014-Oct-30 22:32N 49°17' W 123°04'0 0.0
2014-Oct-30 21:32N 49°17' W 123°04'0 0.0
2014-Oct-30 20:32N 49°17' W 123°05'0 0.0
2014-Oct-30 19:32N 49°17' W 123°04'0 0.0
2014-Oct-30 18:32N 49°17' W 123°04'0 0.0
2014-Oct-30 17:32N 49°17' W 123°04'0 0.0
2014-Oct-30 16:32N 49°17' W 123°04'0 0.0
2014-Oct-30 15:32N 49°17' W 123°05'0 0.0
2014-Oct-30 14:32N 49°17' W 123°04'0 0.0
2014-Oct-30 13:32N 49°17' W 123°05'0 0.0
2014-Oct-30 12:29N 49°17' W 123°04'0 0.0
2014-Oct-30 11:32N 49°17' W 123°04'0 0.0
2014-Oct-30 10:32N 49°17' W 123°04'0 0.0
2014-Oct-30 09:32N 49°17' W 123°04'0 0.0
2014-Oct-30 08:32N 49°17' W 123°04'0 0.0
2014-Oct-30 07:32N 49°17' W 123°04'0 0.0
2014-Oct-30 06:29N 49°17' W 123°04'0 0.0
2014-Oct-30 05:32N 49°17' W 123°04'0 0.0
2014-Oct-30 04:32N 49°17' W 123°04'0 0.0
2014-Oct-30 03:32N 49°17' W 123°05'0 0.0
2014-Oct-30 02:32N 49°17' W 123°05'0 0.0
2014-Oct-30 01:32N 49°17' W 123°04'0 0.0
2014-Oct-30 00:32N 49°17' W 123°05'0 0.0
2014-Oct-29 23:32N 49°17' W 123°05'0 0.0
2014-Oct-29 22:33N 49°17' W 123°04'8 8.2
2014-Oct-29 21:33N 49°17' W 123°17'1616.2
2014-Oct-29 20:33N 49°01' W 123°15'1717.4
2014-Oct-29 19:33N 48°47' W 123°01'1514.9
2014-Oct-29 18:33N 48°34' W 123°12'1413.7
2014-Oct-29 17:34N 48°22' W 123°22'1312.6
2014-Oct-29 16:32N 48°09' W 123°23'1414.3
2014-Oct-29 15:33N 48°12' W 123°02'1816.0
2014-Oct-29 14:24N 48°04' W 122°38'1517.6
2014-Oct-29 13:33N 47°51' W 122°27'2019.6
2014-Oct-29 12:33N 47°31' W 122°25'1413.9
2014-Oct-29 11:33N 47°17' W 122°25'1 0.9
2014-Oct-29 10:33N 47°16' W 122°25'0 0.0
2014-Oct-29 09:30N 47°16' W 122°25'0 0.0
2014-Oct-29 07:33N 47°16' W 122°25'0 0.0
2014-Oct-29 06:30N 47°16' W 122°25'0 0.0
2014-Oct-29 05:33N 47°16' W 122°25'0 0.0
2014-Oct-29 04:33N 47°16' W 122°25'0 0.0
2014-Oct-29 03:33N 47°16' W 122°25'0 0.0
2014-Oct-29 02:21N 47°16' W 122°25'0 0.0
2014-Oct-29 01:33N 47°16' W 122°25'0 0.0
2014-Oct-29 00:03N 47°16' W 122°25'0 0.0
2014-Oct-28 23:33N 47°16' W 122°25'0 0.0
2014-Oct-28 22:09N 47°16' W 122°25'0 0.0
2014-Oct-28 21:24N 47°16' W 122°25'0 0.0
2014-Oct-28 20:33N 47°16' W 122°25'0 0.0
2014-Oct-28 18:27N 47°16' W 122°25'0 0.0
2014-Oct-28 17:33N 47°16' W 122°25'0 0.0
2014-Oct-28 16:24N 47°16' W 122°25'0 0.0
2014-Oct-28 14:33N 47°16' W 122°25'0 0.0
2014-Oct-28 13:33N 47°16' W 122°25'0 0.0
2014-Oct-28 12:33N 47°16' W 122°25'0 0.0
2014-Oct-28 11:33N 47°16' W 122°25'0 0.0
2014-Oct-28 06:33N 47°16' W 122°25'0 0.0
2014-Oct-28 05:33N 47°16' W 122°25'0 0.0
2014-Oct-28 03:30N 47°16' W 122°25'0 0.0
2014-Oct-28 02:18N 47°16' W 122°25'0 0.0
2014-Oct-28 00:24N 47°16' W 122°25'0 0.0
2014-Oct-27 22:19N 47°16' W 122°25'4 4.9
2014-Oct-27 21:33N 47°19' W 122°28'1616.1
2014-Oct-27 20:34N 47°36' W 122°28'1918.7
2014-Oct-27 19:34N 47°54' W 122°30'1816.6
2014-Oct-27 18:28N 48°09' W 122°45'1617.9
2014-Oct-27 17:34N 48°12' W 123°09'1312.8
2014-Oct-27 16:33N 48°12' W 123°28'1111.3
2014-Oct-27 15:32N 48°13' W 123°45'1312.7
2014-Oct-27 14:30N 48°16' W 124°04'1313.4
2014-Oct-27 13:33N 48°22' W 124°22'1413.7
2014-Oct-27 12:33N 48°27' W 124°41'1414.1
2014-Oct-27 11:32N 48°28' W 125°02'1313.1
2014-Oct-27 10:33N 48°32' W 125°21'1212.3
2014-Oct-27 09:33N 48°38' W 125°37'1212.5
2014-Oct-27 08:33N 48°44' W 125°54'1212.0
2014-Oct-27 07:33N 48°49' W 126°10'1212.2
2014-Oct-27 06:33N 48°55' W 126°26'1312.9
2014-Oct-27 05:33N 49°01' W 126°44'1312.8
2014-Oct-27 04:32N 49°07' W 127°01'  
2014-Oct-23 23:00N 54°06' W 161°12'   320 / 201020.0 5.4 1.0 8.0 2.2
Track history (hours):
 
Tides and Currents Weather Stations Pressure Air Temp Water Temp Dewpoint Dewpoint Depression Visibility Wind Speed Wind Dir Waves Ship Positions

Bangkok Bridge

Last reported at 2014-Oct-31 03:33 UTC. Time now 2014-Oct-31 04:11 UTC.
Position N 48°60' W 123°17'.

Length 267 m; draft 12.7 m.

Type: Ship (hazmat cat A). MMSI: 353368000.

Date/timePositionNaut miles runAvg speedWind from/ knotsBaromVisibWave heightAir tempDewpointWater temp
2014-Oct-31 03:33N 48°60' W 123°17'1817.6
2014-Oct-31 02:33N 49°17' W 123°19'10 9.6
2014-Oct-31 01:34N 49°17' W 123°04'0 0.0
2014-Oct-31 00:32N 49°17' W 123°04'0 0.0
2014-Oct-30 23:32N 49°17' W 123°04'0 0.0
2014-Oct-30 22:32N 49°17' W 123°04'0 0.0
2014-Oct-30 21:32N 49°17' W 123°04'0 0.0
2014-Oct-30 20:32N 49°17' W 123°05'0 0.0
2014-Oct-30 19:32N 49°17' W 123°04'0 0.0
2014-Oct-30 18:32N 49°17' W 123°04'0 0.0
2014-Oct-30 17:32N 49°17' W 123°04'0 0.0
2014-Oct-30 16:32N 49°17' W 123°04'0 0.0
2014-Oct-30 15:32N 49°17' W 123°05'0 0.0
2014-Oct-30 14:32N 49°17' W 123°04'0 0.0
2014-Oct-30 13:32N 49°17' W 123°05'0 0.0
2014-Oct-30 12:29N 49°17' W 123°04'0 0.0
2014-Oct-30 11:32N 49°17' W 123°04'0 0.0
2014-Oct-30 10:32N 49°17' W 123°04'0 0.0
2014-Oct-30 09:32N 49°17' W 123°04'0 0.0
2014-Oct-30 08:32N 49°17' W 123°04'0 0.0
2014-Oct-30 07:32N 49°17' W 123°04'0 0.0
2014-Oct-30 06:29N 49°17' W 123°04'0 0.0
2014-Oct-30 05:32N 49°17' W 123°04'0 0.0
2014-Oct-30 04:32N 49°17' W 123°04'0 0.0
2014-Oct-30 03:32N 49°17' W 123°05'0 0.0
2014-Oct-30 02:32N 49°17' W 123°05'0 0.0
2014-Oct-30 01:32N 49°17' W 123°04'0 0.0
2014-Oct-30 00:32N 49°17' W 123°05'0 0.0
2014-Oct-29 23:32N 49°17' W 123°05'0 0.0
2014-Oct-29 22:33N 49°17' W 123°04'8 8.2
2014-Oct-29 21:33N 49°17' W 123°17'1616.2
2014-Oct-29 20:33N 49°01' W 123°15'1717.4
2014-Oct-29 19:33N 48°47' W 123°01'1514.9
2014-Oct-29 18:33N 48°34' W 123°12'1413.7
2014-Oct-29 17:34N 48°22' W 123°22'1312.6
2014-Oct-29 16:32N 48°09' W 123°23'1414.3
2014-Oct-29 15:33N 48°12' W 123°02'1816.0
2014-Oct-29 14:24N 48°04' W 122°38'1517.6
2014-Oct-29 13:33N 47°51' W 122°27'2019.6
2014-Oct-29 12:33N 47°31' W 122°25'1413.9
2014-Oct-29 11:33N 47°17' W 122°25'1 0.9
2014-Oct-29 10:33N 47°16' W 122°25'0 0.0
2014-Oct-29 09:30N 47°16' W 122°25'0 0.0
2014-Oct-29 07:33N 47°16' W 122°25'0 0.0
2014-Oct-29 06:30N 47°16' W 122°25'0 0.0
2014-Oct-29 05:33N 47°16' W 122°25'0 0.0
2014-Oct-29 04:33N 47°16' W 122°25'0 0.0
2014-Oct-29 03:33N 47°16' W 122°25'0 0.0
2014-Oct-29 02:21N 47°16' W 122°25'0 0.0
2014-Oct-29 01:33N 47°16' W 122°25'0 0.0
2014-Oct-29 00:03N 47°16' W 122°25'0 0.0
2014-Oct-28 23:33N 47°16' W 122°25'0 0.0
2014-Oct-28 22:09N 47°16' W 122°25'0 0.0
2014-Oct-28 21:24N 47°16' W 122°25'0 0.0
2014-Oct-28 20:33N 47°16' W 122°25'0 0.0
2014-Oct-28 18:27N 47°16' W 122°25'0 0.0
2014-Oct-28 17:33N 47°16' W 122°25'0 0.0
2014-Oct-28 16:24N 47°16' W 122°25'0 0.0
2014-Oct-28 14:33N 47°16' W 122°25'0 0.0
2014-Oct-28 13:33N 47°16' W 122°25'0 0.0
2014-Oct-28 12:33N 47°16' W 122°25'0 0.0
2014-Oct-28 11:33N 47°16' W 122°25'0 0.0
2014-Oct-28 06:33N 47°16' W 122°25'0 0.0
2014-Oct-28 05:33N 47°16' W 122°25'0 0.0
2014-Oct-28 03:30N 47°16' W 122°25'0 0.0
2014-Oct-28 02:18N 47°16' W 122°25'0 0.0
2014-Oct-28 00:24N 47°16' W 122°25'0 0.0
2014-Oct-27 22:19N 47°16' W 122°25'4 4.9
2014-Oct-27 21:33N 47°19' W 122°28'1616.1
2014-Oct-27 20:34N 47°36' W 122°28'1918.7
2014-Oct-27 19:34N 47°54' W 122°30'1816.6
2014-Oct-27 18:28N 48°09' W 122°45'1617.9
2014-Oct-27 17:34N 48°12' W 123°09'1312.8
2014-Oct-27 16:33N 48°12' W 123°28'1111.3
2014-Oct-27 15:32N 48°13' W 123°45'1312.7
2014-Oct-27 14:30N 48°16' W 124°04'1313.4
2014-Oct-27 13:33N 48°22' W 124°22'1413.7
2014-Oct-27 12:33N 48°27' W 124°41'1414.1
2014-Oct-27 11:32N 48°28' W 125°02'1313.1
2014-Oct-27 10:33N 48°32' W 125°21'1212.3
2014-Oct-27 09:33N 48°38' W 125°37'1212.5
2014-Oct-27 08:33N 48°44' W 125°54'1212.0
2014-Oct-27 07:33N 48°49' W 126°10'1212.2
2014-Oct-27 06:33N 48°55' W 126°26'1312.9
2014-Oct-27 05:33N 49°01' W 126°44'1312.8
2014-Oct-27 04:32N 49°07' W 127°01'  
2014-Oct-23 23:00N 54°06' W 161°12'   320 / 201020.0 5.4 1.0 8.0 2.2

Dump ship's entire track history